Spirit — WDF4892 — position and weather

sailwx.info

Track history (hours):
 
Tides and Currents Weather Stations Pressure Air Temp Water Temp Dewpoint Dewpoint Depression Visibility Wind Speed Wind Dir Waves Ship Positions

Spirit

Owner: Canal Barge Company, Inc., Belle Chasse, LA. More information available from US FCC via Universal Licensing System and Coast Guard Vessel Documentation Center.

Last reported at 2018-Feb-19 09:23 UTC. Time now 2018-Feb-21 03:21 UTC.
Position N 29°24' W 094°45'.

Length 22 m; draft 2.5 m.

Type: Towing. MMSI: 367456950.

Date/timePositionNaut miles runAvg speedWind from/ knotsBaromVisibWave heightAir tempDewpointWater temp
2018-Feb-19 09:23N 29°24' W 094°45'0 0.0
2018-Feb-19 08:59N 29°24' W 094°45'0 0.0
2018-Feb-19 08:23N 29°24' W 094°45'0 0.0
2018-Feb-19 07:59N 29°24' W 094°45'0 0.0
2018-Feb-19 07:29N 29°24' W 094°45'0 0.0
2018-Feb-19 05:38N 29°24' W 094°45'0 0.0
2018-Feb-19 05:29N 29°24' W 094°45'  
2018-Feb-12 22:15N 29°38' W 094°18'2 5.4
2018-Feb-12 21:57N 29°39' W 094°16'2 5.5
2018-Feb-12 21:30N 29°40' W 094°13'3 5.6
2018-Feb-12 21:00N 29°41' W 094°10'3 5.1
2018-Feb-12 20:30N 29°43' W 094°08'3 5.5
2018-Feb-12 20:00N 29°44' W 094°05'3 5.7
2018-Feb-12 19:30N 29°46' W 094°03'3 5.6
2018-Feb-12 19:00N 29°48' W 094°00'2 4.1
2018-Feb-12 18:30N 29°49' W 093°59'0 0.1
2018-Feb-12 18:00N 29°49' W 093°59'0 0.0
2018-Feb-12 17:30N 29°49' W 093°59'0 0.0
2018-Feb-12 17:00N 29°49' W 093°59'0 0.0
2018-Feb-12 16:30N 29°49' W 093°59'0 0.0
2018-Feb-12 16:00N 29°49' W 093°59'0 0.0
2018-Feb-12 15:30N 29°49' W 093°59'0 0.0
2018-Feb-12 14:57N 29°49' W 093°59'0 0.0
2018-Feb-12 14:30N 29°49' W 093°59'0 0.0
2018-Feb-12 14:00N 29°49' W 093°59'0 0.1
2018-Feb-12 13:30N 29°49' W 093°59'2 4.9
2018-Feb-12 13:00N 29°51' W 093°57'4 7.9
2018-Feb-12 12:30N 29°54' W 093°54'4 7.5
2018-Feb-12 12:01N 29°57' W 093°52'2 4.8
2018-Feb-12 11:30N 29°59' W 093°49'4 6.3
2018-Feb-12 10:49N 30°01' W 093°45'3 6.2
2018-Feb-12 10:22N 30°03' W 093°43'2 5.5
2018-Feb-12 10:00N 30°04' W 093°41'7 5.0
2018-Feb-12 08:37N 30°04' W 093°33'1 5.0
2018-Feb-12 08:23N 30°04' W 093°32'2 5.2
2018-Feb-12 08:00N 30°04' W 093°29'3 5.1
2018-Feb-12 07:30N 30°04' W 093°26'3 5.1
2018-Feb-12 06:59N 30°04' W 093°23'2 4.1
2018-Feb-12 06:30N 30°04' W 093°21'2 4.0
2018-Feb-12 05:55N 30°06' W 093°19'1 2.4
2018-Feb-12 05:31N 30°06' W 093°18'3 5.1
2018-Feb-12 05:00N 30°04' W 093°16'2 4.3
2018-Feb-12 04:27N 30°02' W 093°15'2 4.5
2018-Feb-12 03:57N 29°60' W 093°13'1 1.8
2018-Feb-12 03:30N 29°59' W 093°13'3 4.9
2018-Feb-12 02:59N 29°57' W 093°11'2 4.7
2018-Feb-12 02:27N 29°56' W 093°08'42 3.4
2018-Feb-11 13:49N 29°51' W 092°20'0 1.2
2018-Feb-11 13:29N 29°50' W 092°20'0 0.0
2018-Feb-11 07:44N 29°50' W 092°20'0 0.0
2018-Feb-11 05:26N 29°50' W 092°20'0 0.9
2018-Feb-11 04:59N 29°50' W 092°19'1 2.8
2018-Feb-11 04:30N 29°50' W 092°18'2 4.6
2018-Feb-11 04:00N 29°48' W 092°16'2 4.3
2018-Feb-11 03:30N 29°48' W 092°13'2 2.9
2018-Feb-11 02:58N 29°47' W 092°12'1 1.1
2018-Feb-11 02:28N 29°47' W 092°11'0 0.2
2018-Feb-11 01:58N 29°47' W 092°11'0 0.2
2018-Feb-11 01:28N 29°47' W 092°11'1 2.9
2018-Feb-11 01:00N 29°47' W 092°09'2 4.9
2018-Feb-11 00:30N 29°48' W 092°07'3 5.1
2018-Feb-11 00:00N 29°48' W 092°04'  
Track history (hours):
 
Tides and Currents Weather Stations Pressure Air Temp Water Temp Dewpoint Dewpoint Depression Visibility Wind Speed Wind Dir Waves Ship Positions

Spirit

Owner: Canal Barge Company, Inc., Belle Chasse, LA. More information available from US FCC via Universal Licensing System and Coast Guard Vessel Documentation Center.

Last reported at 2018-Feb-19 09:23 UTC. Time now 2018-Feb-21 03:21 UTC.
Position N 29°24' W 094°45'.

Length 22 m; draft 2.5 m.

Type: Towing. MMSI: 367456950.

Date/timePositionNaut miles runAvg speedWind from/ knotsBaromVisibWave heightAir tempDewpointWater temp
2018-Feb-19 09:23N 29°24' W 094°45'0 0.0
2018-Feb-19 08:59N 29°24' W 094°45'0 0.0
2018-Feb-19 08:23N 29°24' W 094°45'0 0.0
2018-Feb-19 07:59N 29°24' W 094°45'0 0.0
2018-Feb-19 07:29N 29°24' W 094°45'0 0.0
2018-Feb-19 05:38N 29°24' W 094°45'0 0.0
2018-Feb-19 05:29N 29°24' W 094°45'  
2018-Feb-12 22:15N 29°38' W 094°18'2 5.4
2018-Feb-12 21:57N 29°39' W 094°16'2 5.5
2018-Feb-12 21:30N 29°40' W 094°13'3 5.6
2018-Feb-12 21:00N 29°41' W 094°10'3 5.1
2018-Feb-12 20:30N 29°43' W 094°08'3 5.5
2018-Feb-12 20:00N 29°44' W 094°05'3 5.7
2018-Feb-12 19:30N 29°46' W 094°03'3 5.6
2018-Feb-12 19:00N 29°48' W 094°00'2 4.1
2018-Feb-12 18:30N 29°49' W 093°59'0 0.1
2018-Feb-12 18:00N 29°49' W 093°59'0 0.0
2018-Feb-12 17:30N 29°49' W 093°59'0 0.0
2018-Feb-12 17:00N 29°49' W 093°59'0 0.0
2018-Feb-12 16:30N 29°49' W 093°59'0 0.0
2018-Feb-12 16:00N 29°49' W 093°59'0 0.0
2018-Feb-12 15:30N 29°49' W 093°59'0 0.0
2018-Feb-12 14:57N 29°49' W 093°59'0 0.0
2018-Feb-12 14:30N 29°49' W 093°59'0 0.0
2018-Feb-12 14:00N 29°49' W 093°59'0 0.1
2018-Feb-12 13:30N 29°49' W 093°59'2 4.9
2018-Feb-12 13:00N 29°51' W 093°57'4 7.9
2018-Feb-12 12:30N 29°54' W 093°54'4 7.5
2018-Feb-12 12:01N 29°57' W 093°52'2 4.8
2018-Feb-12 11:30N 29°59' W 093°49'4 6.3
2018-Feb-12 10:49N 30°01' W 093°45'3 6.2
2018-Feb-12 10:22N 30°03' W 093°43'2 5.5
2018-Feb-12 10:00N 30°04' W 093°41'7 5.0
2018-Feb-12 08:37N 30°04' W 093°33'1 5.0
2018-Feb-12 08:23N 30°04' W 093°32'2 5.2
2018-Feb-12 08:00N 30°04' W 093°29'3 5.1
2018-Feb-12 07:30N 30°04' W 093°26'3 5.1
2018-Feb-12 06:59N 30°04' W 093°23'2 4.1
2018-Feb-12 06:30N 30°04' W 093°21'2 4.0
2018-Feb-12 05:55N 30°06' W 093°19'1 2.4
2018-Feb-12 05:31N 30°06' W 093°18'3 5.1
2018-Feb-12 05:00N 30°04' W 093°16'2 4.3
2018-Feb-12 04:27N 30°02' W 093°15'2 4.5
2018-Feb-12 03:57N 29°60' W 093°13'1 1.8
2018-Feb-12 03:30N 29°59' W 093°13'3 4.9
2018-Feb-12 02:59N 29°57' W 093°11'2 4.7
2018-Feb-12 02:27N 29°56' W 093°08'42 3.4
2018-Feb-11 13:49N 29°51' W 092°20'0 1.2
2018-Feb-11 13:29N 29°50' W 092°20'0 0.0
2018-Feb-11 07:44N 29°50' W 092°20'0 0.0
2018-Feb-11 05:26N 29°50' W 092°20'0 0.9
2018-Feb-11 04:59N 29°50' W 092°19'1 2.8
2018-Feb-11 04:30N 29°50' W 092°18'2 4.6
2018-Feb-11 04:00N 29°48' W 092°16'2 4.3
2018-Feb-11 03:30N 29°48' W 092°13'2 2.9
2018-Feb-11 02:58N 29°47' W 092°12'1 1.1
2018-Feb-11 02:28N 29°47' W 092°11'0 0.2
2018-Feb-11 01:58N 29°47' W 092°11'0 0.2
2018-Feb-11 01:28N 29°47' W 092°11'1 2.9
2018-Feb-11 01:00N 29°47' W 092°09'2 4.9
2018-Feb-11 00:30N 29°48' W 092°07'3 5.1
2018-Feb-11 00:00N 29°48' W 092°04'  

Dump ship's entire track history